sensor_id;sensor_type;location;lat;lon;timestamp;pressure;altitude;pressure_sealevel;temperature;humidity
70323;BME280;57735;56.264;43.898;2023-04-08T00:01:07;102171.66;;;1.99;44.07
70323;BME280;57735;56.264;43.898;2023-04-08T00:03:38;102171.66;;;1.99;43.90
70323;BME280;57735;56.264;43.898;2023-04-08T00:06:08;102169.91;;;1.99;43.57
70323;BME280;57735;56.264;43.898;2023-04-08T00:08:39;102167.38;;;1.96;43.81
70323;BME280;57735;56.264;43.898;2023-04-08T00:11:09;102166.50;;;1.96;43.68
70323;BME280;57735;56.264;43.898;2023-04-08T00:13:40;102161.25;;;1.96;43.76
70323;BME280;57735;56.264;43.898;2023-04-08T00:16:14;102170.06;;;1.95;44.06
70323;BME280;57735;56.264;43.898;2023-04-08T00:18:44;102176.19;;;1.95;43.76
70323;BME280;57735;56.264;43.898;2023-04-08T00:21:15;102171.88;;;1.93;43.77
70323;BME280;57735;56.264;43.898;2023-04-08T00:23:47;102178.00;;;1.93;43.56
70323;BME280;57735;56.264;43.898;2023-04-08T00:26:18;102173.59;;;1.94;43.52
70323;BME280;57735;56.264;43.898;2023-04-08T00:28:48;102184.22;;;1.91;43.85
70323;BME280;57735;56.264;43.898;2023-04-08T00:31:19;102185.13;;;1.90;43.99
70323;BME280;57735;56.264;43.898;2023-04-08T00:33:50;102178.97;;;1.91;43.78
70323;BME280;57735;56.264;43.898;2023-04-08T00:36:20;102180.78;;;1.89;43.94
70323;BME280;57735;56.264;43.898;2023-04-08T00:38:51;102175.63;;;1.86;43.85
70323;BME280;57735;56.264;43.898;2023-04-08T00:41:22;102169.41;;;1.88;43.70
70323;BME280;57735;56.264;43.898;2023-04-08T00:43:52;102173.09;;;1.84;43.70
70323;BME280;57735;56.264;43.898;2023-04-08T00:46:23;102170.56;;;1.81;43.72
70323;BME280;57735;56.264;43.898;2023-04-08T00:48:54;102174.94;;;1.81;43.64
70323;BME280;57735;56.264;43.898;2023-04-08T00:51:24;102179.50;;;1.75;43.84
70323;BME280;57735;56.264;43.898;2023-04-08T00:53:55;102172.56;;;1.73;43.96
70323;BME280;57735;56.264;43.898;2023-04-08T00:56:26;102165.81;;;1.66;44.34
70323;BME280;57735;56.264;43.898;2023-04-08T00:58:57;102168.66;;;1.60;44.38
70323;BME280;57735;56.264;43.898;2023-04-08T01:01:49;102167.91;;;1.56;44.17
70323;BME280;57735;56.264;43.898;2023-04-08T01:06:56;102173.47;;;1.47;44.70
70323;BME280;57735;56.264;43.898;2023-04-08T01:09:29;102170.94;;;1.44;44.78
70323;BME280;57735;56.264;43.898;2023-04-08T01:12:05;102174.56;;;1.40;44.75
70323;BME280;57735;56.264;43.898;2023-04-08T01:14:41;102175.59;;;1.36;44.71
70323;BME280;57735;56.264;43.898;2023-04-08T01:17:15;102180.06;;;1.34;44.72
70323;BME280;57735;56.264;43.898;2023-04-08T01:19:47;102171.38;;;1.32;44.86
70323;BME280;57735;56.264;43.898;2023-04-08T01:22:36;102173.19;;;1.30;44.89
70323;BME280;57735;56.264;43.898;2023-04-08T01:25:15;102174.19;;;1.26;45.07
70323;BME280;57735;56.264;43.898;2023-04-08T01:27:47;102182.97;;;1.25;45.19
70323;BME280;57735;56.264;43.898;2023-04-08T01:30:18;102195.28;;;1.23;45.46
70323;BME280;57735;56.264;43.898;2023-04-08T01:32:51;102184.00;;;1.19;45.48
70323;BME280;57735;56.264;43.898;2023-04-08T01:35:22;102174.50;;;1.17;45.86
70323;BME280;57735;56.264;43.898;2023-04-08T01:37:53;102173.72;;;1.13;46.22
70323;BME280;57735;56.264;43.898;2023-04-08T01:40:24;102178.97;;;1.13;45.86
70323;BME280;57735;56.264;43.898;2023-04-08T01:42:55;102177.22;;;1.14;45.93
70323;BME280;57735;56.264;43.898;2023-04-08T01:45:26;102179.06;;;1.10;45.78
70323;BME280;57735;56.264;43.898;2023-04-08T01:47:58;102187.94;;;1.06;46.00
70323;BME280;57735;56.264;43.898;2023-04-08T01:50:29;102183.56;;;1.07;46.32
70323;BME280;57735;56.264;43.898;2023-04-08T01:53:00;102181.88;;;1.04;46.34
70323;BME280;57735;56.264;43.898;2023-04-08T01:55:33;102176.84;;;0.98;46.62
70323;BME280;57735;56.264;43.898;2023-04-08T01:58:05;102190.06;;;0.95;46.23
70323;BME280;57735;56.264;43.898;2023-04-08T02:00:39;102192.69;;;0.95;46.34
70323;BME280;57735;56.264;43.898;2023-04-08T02:03:10;102194.44;;;0.94;46.74
70323;BME280;57735;56.264;43.898;2023-04-08T02:05:41;102196.25;;;0.92;46.33
70323;BME280;57735;56.264;43.898;2023-04-08T02:08:12;102196.25;;;0.92;46.80
70323;BME280;57735;56.264;43.898;2023-04-08T02:10:42;102197.94;;;0.95;46.46
70323;BME280;57735;56.264;43.898;2023-04-08T02:13:13;102190.91;;;0.95;47.10
70323;BME280;57735;56.264;43.898;2023-04-08T02:15:45;102197.03;;;0.96;46.96
70323;BME280;57735;56.264;43.898;2023-04-08T02:18:21;102197.94;;;0.95;46.96
70323;BME280;57735;56.264;43.898;2023-04-08T02:20:59;102205.00;;;0.93;46.91
70323;BME280;57735;56.264;43.898;2023-04-08T02:23:32;102198.06;;;0.90;47.27
70323;BME280;57735;56.264;43.898;2023-04-08T02:26:06;102205.09;;;0.90;47.14
70323;BME280;57735;56.264;43.898;2023-04-08T02:28:37;102208.56;;;0.90;46.88
70323;BME280;57735;56.264;43.898;2023-04-08T02:31:09;102206.75;;;0.92;47.25
70323;BME280;57735;56.264;43.898;2023-04-08T02:33:46;102215.31;;;0.99;46.75
70323;BME280;57735;56.264;43.898;2023-04-08T02:36:18;102205.59;;;1.01;46.90
70323;BME280;57735;56.264;43.898;2023-04-08T02:38:51;102213.47;;;1.01;46.73
70323;BME280;57735;56.264;43.898;2023-04-08T02:41:21;102210.84;;;1.01;46.74
70323;BME280;57735;56.264;43.898;2023-04-08T02:43:52;102207.31;;;1.02;46.83
70323;BME280;57735;56.264;43.898;2023-04-08T02:46:24;102206.38;;;1.04;46.71
70323;BME280;57735;56.264;43.898;2023-04-08T02:48:55;102216.84;;;1.06;46.60
70323;BME280;57735;56.264;43.898;2023-04-08T02:51:25;102207.22;;;1.05;46.60
70323;BME280;57735;56.264;43.898;2023-04-08T02:53:57;102207.28;;;1.03;47.07
70323;BME280;57735;56.264;43.898;2023-04-08T02:56:27;102209.00;;;1.04;46.87
70323;BME280;57735;56.264;43.898;2023-04-08T02:58:58;102205.41;;;1.07;46.96
70323;BME280;57735;56.264;43.898;2023-04-08T03:01:29;102204.47;;;1.10;46.98
70323;BME280;57735;56.264;43.898;2023-04-08T03:03:59;102210.44;;;1.15;46.44
70323;BME280;57735;56.264;43.898;2023-04-08T03:06:30;102208.56;;;1.18;46.43
70323;BME280;57735;56.264;43.898;2023-04-08T03:09:01;102207.59;;;1.21;46.46
70323;BME280;57735;56.264;43.898;2023-04-08T03:11:35;102207.50;;;1.24;46.51
70323;BME280;57735;56.264;43.898;2023-04-08T03:14:08;102211.81;;;1.26;46.18
70323;BME280;57735;56.264;43.898;2023-04-08T03:16:38;102216.13;;;1.29;46.37
70323;BME280;57735;56.264;43.898;2023-04-08T03:19:09;102215.13;;;1.33;46.13
70323;BME280;57735;56.264;43.898;2023-04-08T03:21:39;102212.31;;;1.37;46.21
70323;BME280;57735;56.264;43.898;2023-04-08T03:24:10;102217.47;;;1.40;46.21
70323;BME280;57735;56.264;43.898;2023-04-08T03:26:40;102217.44;;;1.42;46.27
70323;BME280;57735;56.264;43.898;2023-04-08T03:29:11;102217.28;;;1.47;46.19
70323;BME280;57735;56.264;43.898;2023-04-08T03:31:41;102217.19;;;1.50;45.92
70323;BME280;57735;56.264;43.898;2023-04-08T03:34:12;102221.41;;;1.54;45.85
70323;BME280;57735;56.264;43.898;2023-04-08T03:36:42;102223.13;;;1.55;46.24
70323;BME280;57735;56.264;43.898;2023-04-08T03:39:13;102226.47;;;1.60;46.01
70323;BME280;57735;56.264;43.898;2023-04-08T03:41:43;102220.16;;;1.65;45.94
70323;BME280;57735;56.264;43.898;2023-04-08T03:44:14;102223.47;;;1.70;46.08
70323;BME280;57735;56.264;43.898;2023-04-08T03:46:45;102227.78;;;1.73;45.60
70323;BME280;57735;56.264;43.898;2023-04-08T03:49:15;102227.59;;;1.79;45.80
70323;BME280;57735;56.264;43.898;2023-04-08T03:51:45;102230.94;;;1.84;45.78
70323;BME280;57735;56.264;43.898;2023-04-08T03:54:16;102233.31;;;1.90;45.52
70323;BME280;57735;56.264;43.898;2023-04-08T03:56:48;102229.72;;;1.93;45.49
70323;BME280;57735;56.264;43.898;2023-04-08T03:59:20;102230.38;;;1.99;45.55
70323;BME280;57735;56.264;43.898;2023-04-08T04:01:51;102227.47;;;2.07;45.20
70323;BME280;57735;56.264;43.898;2023-04-08T04:04:22;102229.94;;;2.12;44.89
70323;BME280;57735;56.264;43.898;2023-04-08T04:06:53;102223.69;;;2.16;44.86
70323;BME280;57735;56.264;43.898;2023-04-08T04:09:23;102226.97;;;2.21;44.63
70323;BME280;57735;56.264;43.898;2023-04-08T04:11:56;102226.78;;;2.27;44.59
70323;BME280;57735;56.264;43.898;2023-04-08T04:14:27;102236.19;;;2.34;44.56
70323;BME280;57735;56.264;43.898;2023-04-08T04:16:57;102228.03;;;2.40;44.18
70323;BME280;57735;56.264;43.898;2023-04-08T04:19:31;102223.38;;;2.48;44.24
70323;BME280;57735;56.264;43.898;2023-04-08T04:22:01;102218.72;;;2.55;44.36
70323;BME280;57735;56.264;43.898;2023-04-08T04:24:32;102217.53;;;2.63;43.94
70323;BME280;57735;56.264;43.898;2023-04-08T04:27:02;102227.66;;;2.74;43.89
70323;BME280;57735;56.264;43.898;2023-04-08T04:29:33;102231.72;;;2.83;43.60
70323;BME280;57735;56.264;43.898;2023-04-08T04:32:03;102231.41;;;2.90;43.34
70323;BME280;57735;56.264;43.898;2023-04-08T04:34:34;102236.34;;;2.99;43.34
70323;BME280;57735;56.264;43.898;2023-04-08T04:37:04;102234.25;;;3.07;43.14
70323;BME280;57735;56.264;43.898;2023-04-08T04:39:38;102241.00;;;3.14;42.92
70323;BME280;57735;56.264;43.898;2023-04-08T04:42:09;102233.75;;;3.20;42.81
70323;BME280;57735;56.264;43.898;2023-04-08T04:44:39;102232.59;;;3.27;42.77
70323;BME280;57735;56.264;43.898;2023-04-08T04:47:10;102237.56;;;3.34;42.56
70323;BME280;57735;56.264;43.898;2023-04-08T04:49:40;102231.97;;;3.42;42.23
70323;BME280;57735;56.264;43.898;2023-04-08T04:52:11;102241.38;;;3.49;42.16
70323;BME280;57735;56.264;43.898;2023-04-08T04:54:41;102237.53;;;3.56;42.08
70323;BME280;57735;56.264;43.898;2023-04-08T04:57:12;102241.66;;;3.63;41.69
70323;BME280;57735;56.264;43.898;2023-04-08T04:59:42;102235.25;;;3.69;41.29
70323;BME280;57735;56.264;43.898;2023-04-08T05:02:13;102247.31;;;3.74;40.82
70323;BME280;57735;56.264;43.898;2023-04-08T05:04:46;102242.66;;;3.81;40.83
70323;BME280;57735;56.264;43.898;2023-04-08T05:07:16;102246.75;;;3.88;41.01
70323;BME280;57735;56.264;43.898;2023-04-08T05:09:47;102266.63;;;3.97;40.83
70323;BME280;57735;56.264;43.898;2023-04-08T05:12:17;102257.44;;;4.05;40.54
70323;BME280;57735;56.264;43.898;2023-04-08T05:14:49;102261.59;;;4.11;40.03
70323;BME280;57735;56.264;43.898;2023-04-08T05:17:20;102255.16;;;4.18;39.95
70323;BME280;57735;56.264;43.898;2023-04-08T05:19:50;102258.50;;;4.21;39.31
70323;BME280;57735;56.264;43.898;2023-04-08T05:22:22;102262.47;;;4.32;39.41
70323;BME280;57735;56.264;43.898;2023-04-08T05:24:52;102269.09;;;4.40;39.45
70323;BME280;57735;56.264;43.898;2023-04-08T05:27:23;102257.22;;;4.50;39.13
70323;BME280;57735;56.264;43.898;2023-04-08T05:29:54;102261.28;;;4.57;39.04
70323;BME280;57735;56.264;43.898;2023-04-08T05:32:28;102267.16;;;4.64;39.06
70323;BME280;57735;56.264;43.898;2023-04-08T05:35:00;102261.44;;;4.73;38.97
70323;BME280;57735;56.264;43.898;2023-04-08T05:37:31;102264.69;;;4.80;38.69
70323;BME280;57735;56.264;43.898;2023-04-08T05:40:01;102271.31;;;4.88;38.80
70323;BME280;57735;56.264;43.898;2023-04-08T05:42:33;102266.41;;;5.00;38.68
70323;BME280;57735;56.264;43.898;2023-04-08T05:45:04;102266.03;;;5.07;38.13
70323;BME280;57735;56.264;43.898;2023-04-08T05:47:35;102262.91;;;5.18;38.26
70323;BME280;57735;56.264;43.898;2023-04-08T05:50:08;102264.50;;;5.20;37.95
70323;BME280;57735;56.264;43.898;2023-04-08T05:52:42;102272.03;;;5.30;38.00
70323;BME280;57735;56.264;43.898;2023-04-08T05:55:16;102275.25;;;5.36;38.05
70323;BME280;57735;56.264;43.898;2023-04-08T05:57:46;102266.13;;;5.42;37.89
70323;BME280;57735;56.264;43.898;2023-04-08T06:00:17;102269.44;;;5.47;37.87
70323;BME280;57735;56.264;43.898;2023-04-08T06:02:47;102275.19;;;5.55;37.83
70323;BME280;57735;56.264;43.898;2023-04-08T06:05:18;102259.81;;;5.63;37.61
70323;BME280;57735;56.264;43.898;2023-04-08T06:07:48;102268.13;;;5.73;37.46
70323;BME280;57735;56.264;43.898;2023-04-08T06:10:19;102268.78;;;5.78;37.17
70323;BME280;57735;56.264;43.898;2023-04-08T06:12:50;102272.84;;;5.85;37.01
70323;BME280;57735;56.264;43.898;2023-04-08T06:15:20;102270.69;;;5.93;36.70
70323;BME280;57735;56.264;43.898;2023-04-08T06:17:51;102273.56;;;6.06;36.76
70323;BME280;57735;56.264;43.898;2023-04-08T06:20:21;102268.59;;;6.17;36.38
70323;BME280;57735;56.264;43.898;2023-04-08T06:22:52;102274.25;;;6.26;36.41
70323;BME280;57735;56.264;43.898;2023-04-08T06:25:22;102269.44;;;6.35;36.22
70323;BME280;57735;56.264;43.898;2023-04-08T06:27:54;102269.63;;;6.47;36.24
70323;BME280;57735;56.264;43.898;2023-04-08T06:30:25;102270.84;;;6.57;35.89
70323;BME280;57735;56.264;43.898;2023-04-08T06:32:55;102265.16;;;6.65;34.72
70323;BME280;57735;56.264;43.898;2023-04-08T06:35:26;102271.81;;;6.72;34.88
70323;BME280;57735;56.264;43.898;2023-04-08T06:37:59;102266.13;;;6.80;34.23
70323;BME280;57735;56.264;43.898;2023-04-08T06:40:29;102266.72;;;6.85;34.21
70323;BME280;57735;56.264;43.898;2023-04-08T06:43:00;102263.56;;;6.94;34.38
70323;BME280;57735;56.264;43.898;2023-04-08T06:45:30;102267.31;;;7.06;34.13
70323;BME280;57735;56.264;43.898;2023-04-08T06:48:08;102265.97;;;7.14;33.06
70323;BME280;57735;56.264;43.898;2023-04-08T06:50:39;102261.94;;;7.23;32.45
70323;BME280;57735;56.264;43.898;2023-04-08T06:53:09;102269.47;;;7.30;31.46
70323;BME280;57735;56.264;43.898;2023-04-08T06:55:40;102273.06;;;7.29;30.18
70323;BME280;57735;56.264;43.898;2023-04-08T06:58:10;102261.53;;;7.30;30.14
70323;BME280;57735;56.264;43.898;2023-04-08T07:00:41;102258.72;;;7.33;30.71
70323;BME280;57735;56.264;43.898;2023-04-08T07:03:11;102255.88;;;7.37;30.40
70323;BME280;57735;56.264;43.898;2023-04-08T07:05:42;102260.81;;;7.43;30.10
70323;BME280;57735;56.264;43.898;2023-04-08T07:08:13;102265.78;;;7.49;30.34
70323;BME280;57735;56.264;43.898;2023-04-08T07:10:44;102261.34;;;7.49;30.15
70323;BME280;57735;56.264;43.898;2023-04-08T07:13:14;102264.00;;;7.49;30.36
70323;BME280;57735;56.264;43.898;2023-04-08T07:15:46;102260.41;;;7.50;30.44
70323;BME280;57735;56.264;43.898;2023-04-08T07:18:17;102249.69;;;7.52;30.15
70323;BME280;57735;56.264;43.898;2023-04-08T07:20:51;102260.88;;;7.57;30.15
70323;BME280;57735;56.264;43.898;2023-04-08T07:23:25;102253.13;;;7.54;30.00
70323;BME280;57735;56.264;43.898;2023-04-08T07:26:00;102246.75;;;7.56;29.51
70323;BME280;57735;56.264;43.898;2023-04-08T07:28:31;102252.50;;;7.64;29.85
70323;BME280;57735;56.264;43.898;2023-04-08T07:31:11;102258.78;;;7.78;29.91
70323;BME280;57735;56.264;43.898;2023-04-08T07:33:42;102247.81;;;7.84;28.96
70323;BME280;57735;56.264;43.898;2023-04-08T07:36:13;102255.31;;;7.91;28.61
70323;BME280;57735;56.264;43.898;2023-04-08T07:38:44;102246.78;;;7.86;27.72
70323;BME280;57735;56.264;43.898;2023-04-08T07:41:15;102253.81;;;7.87;27.92
70323;BME280;57735;56.264;43.898;2023-04-08T07:43:45;102247.53;;;7.88;27.57
70323;BME280;57735;56.264;43.898;2023-04-08T07:46:18;102246.59;;;7.89;27.32
70323;BME280;57735;56.264;43.898;2023-04-08T07:48:50;102243.00;;;7.90;27.72
70323;BME280;57735;56.264;43.898;2023-04-08T07:51:24;102243.41;;;7.98;27.81
70323;BME280;57735;56.264;43.898;2023-04-08T07:53:56;102241.81;;;8.10;27.33
70323;BME280;57735;56.264;43.898;2023-04-08T07:56:27;102238.31;;;8.24;27.59
70323;BME280;57735;56.264;43.898;2023-04-08T07:58:57;102237.31;;;8.40;27.59
70323;BME280;57735;56.264;43.898;2023-04-08T08:01:28;102235.16;;;8.47;26.67
70323;BME280;57735;56.264;43.898;2023-04-08T08:04:02;102230.88;;;8.45;26.15
70323;BME280;57735;56.264;43.898;2023-04-08T08:06:33;102220.44;;;8.42;25.64
70323;BME280;57735;56.264;43.898;2023-04-08T08:09:03;102227.19;;;8.47;25.66
70323;BME280;57735;56.264;43.898;2023-04-08T08:11:34;102216.06;;;8.55;25.47
70323;BME280;57735;56.264;43.898;2023-04-08T08:14:05;102215.41;;;8.51;24.87
70323;BME280;57735;56.264;43.898;2023-04-08T08:16:38;102223.84;;;8.58;25.44
70323;BME280;57735;56.264;43.898;2023-04-08T08:19:08;102222.03;;;8.72;25.64
70323;BME280;57735;56.264;43.898;2023-04-08T08:21:39;102218.81;;;8.82;25.36
70323;BME280;57735;56.264;43.898;2023-04-08T08:24:12;102220.22;;;8.87;25.45
70323;BME280;57735;56.264;43.898;2023-04-08T08:26:43;102219.72;;;8.95;25.18
70323;BME280;57735;56.264;43.898;2023-04-08T08:29:21;102220.50;;;8.97;24.61
70323;BME280;57735;56.264;43.898;2023-04-08T08:31:51;102211.19;;;8.90;24.78
70323;BME280;57735;56.264;43.898;2023-04-08T08:34:22;102215.44;;;8.92;25.41
70323;BME280;57735;56.264;43.898;2023-04-08T08:36:52;102216.88;;;8.98;25.28
70323;BME280;57735;56.264;43.898;2023-04-08T08:39:23;102205.72;;;9.05;25.25
70323;BME280;57735;56.264;43.898;2023-04-08T08:41:53;102208.09;;;9.10;25.54
70323;BME280;57735;56.264;43.898;2023-04-08T08:44:25;102207.81;;;9.15;25.47
70323;BME280;57735;56.264;43.898;2023-04-08T08:46:56;102196.47;;;9.25;25.54
70323;BME280;57735;56.264;43.898;2023-04-08T08:49:29;102195.66;;;9.37;24.97
70323;BME280;57735;56.264;43.898;2023-04-08T08:51:59;102202.66;;;9.38;24.32
70323;BME280;57735;56.264;43.898;2023-04-08T08:54:30;102194.09;;;9.48;24.61
70323;BME280;57735;56.264;43.898;2023-04-08T08:57:00;102191.88;;;9.54;24.14
70323;BME280;57735;56.264;43.898;2023-04-08T08:59:31;102186.78;;;9.64;24.40
70323;BME280;57735;56.264;43.898;2023-04-08T09:02:01;102189.03;;;9.70;24.28
70323;BME280;57735;56.264;43.898;2023-04-08T09:04:32;102194.38;;;9.70;24.30
70323;BME280;57735;56.264;43.898;2023-04-08T09:07:09;102195.09;;;9.72;24.63
70323;BME280;57735;56.264;43.898;2023-04-08T09:09:49;102192.66;;;9.69;24.07
70323;BME280;57735;56.264;43.898;2023-04-08T09:12:20;102190.63;;;9.72;24.01
70323;BME280;57735;56.264;43.898;2023-04-08T09:14:51;102191.91;;;9.67;23.69
70323;BME280;57735;56.264;43.898;2023-04-08T09:17:37;102185.28;;;9.72;23.54
70323;BME280;57735;56.264;43.898;2023-04-08T09:20:08;102192.78;;;9.80;23.78
70323;BME280;57735;56.264;43.898;2023-04-08T09:23:00;102187.91;;;9.87;22.66
70323;BME280;57735;56.264;43.898;2023-04-08T09:25:31;102182.13;;;9.93;22.95
70323;BME280;57735;56.264;43.898;2023-04-08T09:28:02;102188.41;;;9.92;22.62
70323;BME280;57735;56.264;43.898;2023-04-08T09:30:32;102186.31;;;9.97;22.90
70323;BME280;57735;56.264;43.898;2023-04-08T09:33:03;102175.22;;;10.03;22.68
70323;BME280;57735;56.264;43.898;2023-04-08T09:35:36;102181.31;;;10.05;22.29
70323;BME280;57735;56.264;43.898;2023-04-08T09:38:07;102175.00;;;10.06;22.11
70323;BME280;57735;56.264;43.898;2023-04-08T09:40:37;102183.84;;;10.06;21.56
70323;BME280;57735;56.264;43.898;2023-04-08T09:43:10;102185.78;;;10.04;21.88
70323;BME280;57735;56.264;43.898;2023-04-08T09:45:42;102181.53;;;10.02;21.58
70323;BME280;57735;56.264;43.898;2023-04-08T09:48:17;102173.41;;;10.03;21.73
70323;BME280;57735;56.264;43.898;2023-04-08T09:50:53;102164.97;;;10.09;22.04
70323;BME280;57735;56.264;43.898;2023-04-08T09:53:33;102176.19;;;10.14;22.02
70323;BME280;57735;56.264;43.898;2023-04-08T09:56:06;102171.50;;;10.18;22.27
70323;BME280;57735;56.264;43.898;2023-04-08T09:58:54;102173.84;;;10.23;22.52
70323;BME280;57735;56.264;43.898;2023-04-08T10:01:31;102178.75;;;10.29;21.84
70323;BME280;57735;56.264;43.898;2023-04-08T10:04:07;102172.16;;;10.34;21.97
70323;BME280;57735;56.264;43.898;2023-04-08T10:06:39;102165.31;;;10.43;22.62
70323;BME280;57735;56.264;43.898;2023-04-08T10:09:10;102175.22;;;10.54;22.79
70323;BME280;57735;56.264;43.898;2023-04-08T10:11:41;102167.41;;;10.63;22.65
70323;BME280;57735;56.264;43.898;2023-04-08T10:14:14;102165.72;;;10.62;21.74
70323;BME280;57735;56.264;43.898;2023-04-08T10:16:45;102170.94;;;10.64;22.03
70323;BME280;57735;56.264;43.898;2023-04-08T10:27:48;102150.50;;;10.75;22.17
70323;BME280;57735;56.264;43.898;2023-04-08T10:32:58;102152.13;;;10.78;22.01
70323;BME280;57735;56.264;43.898;2023-04-08T10:35:29;102154.25;;;10.73;21.91
70323;BME280;57735;56.264;43.898;2023-04-08T10:38:00;102144.16;;;10.65;22.36
70323;BME280;57735;56.264;43.898;2023-04-08T10:40:34;102149.16;;;10.70;22.69
70323;BME280;57735;56.264;43.898;2023-04-08T10:43:08;102144.56;;;10.72;22.65
70323;BME280;57735;56.264;43.898;2023-04-08T10:45:43;102151.78;;;10.82;22.37
70323;BME280;57735;56.264;43.898;2023-04-08T10:51:00;102138.66;;;10.79;21.06
70323;BME280;57735;56.264;43.898;2023-04-08T10:53:34;102135.88;;;10.81;21.83
70323;BME280;57735;56.264;43.898;2023-04-08T10:56:09;102138.00;;;10.89;21.96
70323;BME280;57735;56.264;43.898;2023-04-08T10:58:51;102134.88;;;10.95;22.52
70323;BME280;57735;56.264;43.898;2023-04-08T11:01:21;102128.13;;;11.02;22.15
70323;BME280;57735;56.264;43.898;2023-04-08T11:03:54;102127.06;;;11.04;22.22
70323;BME280;57735;56.264;43.898;2023-04-08T11:06:25;102121.09;;;11.01;22.26
70323;BME280;57735;56.264;43.898;2023-04-08T11:08:56;102126.22;;;11.04;22.27
70323;BME280;57735;56.264;43.898;2023-04-08T11:11:29;102119.91;;;11.05;22.42
70323;BME280;57735;56.264;43.898;2023-04-08T11:14:00;102117.34;;;11.03;21.83
70323;BME280;57735;56.264;43.898;2023-04-08T11:16:33;102110.00;;;10.94;21.66
70323;BME280;57735;56.264;43.898;2023-04-08T11:19:04;102106.97;;;10.88;22.00
70323;BME280;57735;56.264;43.898;2023-04-08T11:21:35;102110.34;;;10.90;21.47
70323;BME280;57735;56.264;43.898;2023-04-08T11:24:09;102102.75;;;10.96;21.72
70323;BME280;57735;56.264;43.898;2023-04-08T11:26:44;102100.75;;;11.11;22.47
70323;BME280;57735;56.264;43.898;2023-04-08T11:29:14;102098.38;;;11.19;22.36
70323;BME280;57735;56.264;43.898;2023-04-08T11:31:45;102102.75;;;11.20;22.31
70323;BME280;57735;56.264;43.898;2023-04-08T11:34:21;102092.81;;;11.22;22.46
70323;BME280;57735;56.264;43.898;2023-04-08T11:36:55;102090.63;;;11.27;22.52
70323;BME280;57735;56.264;43.898;2023-04-08T11:39:27;102099.25;;;11.31;21.74
70323;BME280;57735;56.264;43.898;2023-04-08T11:41:58;102099.25;;;11.31;21.68
70323;BME280;57735;56.264;43.898;2023-04-08T11:44:31;102089.31;;;11.33;20.98
70323;BME280;57735;56.264;43.898;2023-04-08T11:47:05;102101.56;;;11.35;20.71
70323;BME280;57735;56.264;43.898;2023-04-08T11:49:42;102096.25;;;11.35;21.00
70323;BME280;57735;56.264;43.898;2023-04-08T11:52:13;102095.50;;;11.33;21.06
70323;BME280;57735;56.264;43.898;2023-04-08T11:54:43;102097.03;;;11.25;20.60
70323;BME280;57735;56.264;43.898;2023-04-08T11:57:14;102096.56;;;11.19;20.63
70323;BME280;57735;56.264;43.898;2023-04-08T11:59:57;102094.00;;;11.18;20.81
70323;BME280;57735;56.264;43.898;2023-04-08T12:02:27;102094.00;;;11.18;21.35
70323;BME280;57735;56.264;43.898;2023-04-08T12:04:58;102094.72;;;11.20;21.81
70323;BME280;57735;56.264;43.898;2023-04-08T12:07:28;102097.41;;;11.20;20.96
70323;BME280;57735;56.264;43.898;2023-04-08T12:09:59;102100.19;;;11.18;21.37
70323;BME280;57735;56.264;43.898;2023-04-08T12:12:30;102088.88;;;11.15;21.25
70323;BME280;57735;56.264;43.898;2023-04-08T12:15:01;102095.91;;;11.16;21.49
70323;BME280;57735;56.264;43.898;2023-04-08T12:17:31;102087.22;;;11.25;22.26
70323;BME280;57735;56.264;43.898;2023-04-08T12:20:02;102083.47;;;11.28;21.74
70323;BME280;57735;56.264;43.898;2023-04-08T12:22:33;102089.41;;;11.31;20.88
70323;BME280;57735;56.264;43.898;2023-04-08T12:25:04;102083.22;;;11.31;21.02
70323;BME280;57735;56.264;43.898;2023-04-08T12:27:35;102078.63;;;11.33;21.24
70323;BME280;57735;56.264;43.898;2023-04-08T12:30:06;102083.50;;;11.39;20.69
70323;BME280;57735;56.264;43.898;2023-04-08T12:32:36;102072.00;;;11.49;20.75
70323;BME280;57735;56.264;43.898;2023-04-08T12:35:07;102072.84;;;11.61;20.71
70323;BME280;57735;56.264;43.898;2023-04-08T12:37:38;102072.44;;;11.78;21.11
70323;BME280;57735;56.264;43.898;2023-04-08T12:40:08;102071.38;;;12.03;21.29
70323;BME280;57735;56.264;43.898;2023-04-08T12:42:39;102066.00;;;12.26;20.78
70323;BME280;57735;56.264;43.898;2023-04-08T12:45:09;102055.94;;;12.72;20.70
70323;BME280;57735;56.264;43.898;2023-04-08T12:47:40;102055.22;;;13.34;19.76
70323;BME280;57735;56.264;43.898;2023-04-08T12:50:13;102049.38;;;14.01;19.38
70323;BME280;57735;56.264;43.898;2023-04-08T12:52:45;102049.00;;;14.75;18.67
70323;BME280;57735;56.264;43.898;2023-04-08T12:55:15;102048.44;;;15.29;18.28
70323;BME280;57735;56.264;43.898;2023-04-08T12:57:50;102051.97;;;15.58;18.04
70323;BME280;57735;56.264;43.898;2023-04-08T13:00:21;102043.81;;;15.78;17.90
70323;BME280;57735;56.264;43.898;2023-04-08T13:02:51;102042.09;;;15.86;17.90
70323;BME280;57735;56.264;43.898;2023-04-08T13:05:22;102037.78;;;16.03;17.99
70323;BME280;57735;56.264;43.898;2023-04-08T13:07:52;102034.91;;;16.14;18.11
70323;BME280;57735;56.264;43.898;2023-04-08T13:10:23;102032.88;;;16.44;17.85
70323;BME280;57735;56.264;43.898;2023-04-08T13:12:53;102026.50;;;16.72;17.56
70323;BME280;57735;56.264;43.898;2023-04-08T13:15:24;102017.78;;;16.78;17.06
70323;BME280;57735;56.264;43.898;2023-04-08T13:17:54;102036.81;;;16.04;18.05
70323;BME280;57735;56.264;43.898;2023-04-08T13:20:27;102027.84;;;14.91;18.77
70323;BME280;57735;56.264;43.898;2023-04-08T13:22:58;102020.66;;;14.22;18.98
70323;BME280;57735;56.264;43.898;2023-04-08T13:25:32;102013.25;;;13.75;19.89
70323;BME280;57735;56.264;43.898;2023-04-08T13:28:03;102012.00;;;13.27;19.85